Time;durP1;ratioP1;P1;durP2;ratioP2;P2;SDS_P1;SDS_P2;PMS_P1;PMS_P2;Temp;Humidity;BMP_temperature;BMP_pressure;BME280_temperature;BME280_humidity;BME280_pressure;Samples;Min_cycle;Max_cycle;Signal;HPM_P1;HPM_P2
2021/01/10 00:02:24;;;;;;;14.70;9.57;;;;;;;1.32;77.14;101549.56;5052410;28;20021;-75
2021/01/10 00:04:50;;;;;;;16.83;8.98;;;;;;;1.24;76.95;101546.91;5039302;28;20059;-76
2021/01/10 00:07:15;;;;;;;16.20;9.15;;;;;;;1.17;77.05;101541.41;5053863;28;20432;-75
2021/01/10 00:09:40;;;;;;;9.93;6.55;;;;;;;1.13;77.04;101542.78;5026613;28;20091;-74
2021/01/10 00:12:06;;;;;;;4.97;4.25;;;;;;;1.14;77.60;101530.97;5049362;28;20033;-73
2021/01/10 00:14:32;;;;;;;4.28;3.95;;;;;;;1.16;76.93;101534.31;5025313;28;20045;-74
2021/01/10 00:16:59;;;;;;;8.00;5.53;;;;;;;1.21;76.95;101540.03;5009091;28;20377;-74
2021/01/10 00:19:25;;;;;;;10.40;7.10;;;;;;;1.19;77.64;101527.75;5020860;28;20053;-75
2021/01/10 00:21:50;;;;;;;9.15;7.00;;;;;;;1.16;76.82;101533.50;5032891;28;20128;-74
2021/01/10 00:24:15;;;;;;;11.77;7.40;;;;;;;1.08;77.10;101512.84;5012412;28;20041;-73
2021/01/10 00:26:41;;;;;;;11.15;7.65;;;;;;;1.00;76.48;101523.66;5036167;28;20033;-73
2021/01/10 00:29:07;;;;;;;7.78;6.63;;;;;;;0.85;76.56;101529.75;5017497;28;20028;-73
2021/01/10 00:31:36;;;;;;;7.15;4.72;;;;;;;0.84;77.74;101525.38;5048335;28;20105;-76
2021/01/10 00:34:05;;;;;;;5.50;4.40;;;;;;;0.83;77.92;101518.34;5026737;28;20044;-74
2021/01/10 00:36:35;;;;;;;10.88;8.10;;;;;;;0.86;78.37;101523.38;5038483;28;20039;-72
2021/01/10 00:39:05;;;;;;;11.13;8.27;;;;;;;0.77;77.36;101512.78;5036351;28;20033;-74
2021/01/10 00:41:40;;;;;;;5.90;5.38;;;;;;;0.80;77.85;101524.03;5042308;28;20017;-74
2021/01/10 00:44:06;;;;;;;14.13;7.22;;;;;;;0.83;78.97;101523.72;5047536;28;20025;-73
2021/01/10 00:46:34;;;;;;;7.50;5.38;;;;;;;0.83;78.80;101521.03;5048815;28;20033;-72
2021/01/10 00:49:01;;;;;;;14.55;9.73;;;;;;;0.80;78.39;101507.88;5025890;28;20037;-73
2021/01/10 00:51:26;;;;;;;8.80;6.80;;;;;;;0.79;78.85;101511.63;5058971;28;20028;-71
2021/01/10 00:53:51;;;;;;;20.85;10.25;;;;;;;0.79;78.56;101511.63;5044251;28;20033;-72
2021/01/10 00:56:17;;;;;;;16.17;9.52;;;;;;;0.76;79.04;101511.13;5016764;28;20028;-74
2021/01/10 00:58:42;;;;;;;12.45;7.93;;;;;;;0.65;79.01;101504.28;5037735;28;20025;-73
2021/01/10 01:01:08;;;;;;;10.20;7.60;;;;;;;0.69;79.04;101516.38;5028353;28;20021;-72
2021/01/10 01:03:34;;;;;;;7.93;6.72;;;;;;;0.66;78.86;101511.34;5053323;28;20039;-71
2021/01/10 01:05:59;;;;;;;7.78;4.78;;;;;;;0.68;79.70;101517.38;5018466;28;20033;-71
2021/01/10 01:08:25;;;;;;;6.28;4.95;;;;;;;0.72;79.41;101513.31;5032297;28;20053;-72
2021/01/10 01:10:50;;;;;;;5.88;5.32;;;;;;;0.74;79.50;101513.97;5039804;28;20029;-72
2021/01/10 01:13:16;;;;;;;7.93;7.13;;;;;;;0.73;78.98;101516.84;5024550;28;20032;-74
2021/01/10 01:15:42;;;;;;;10.57;7.85;;;;;;;0.68;78.91;101509.31;5020815;28;20112;-72
2021/01/10 01:18:08;;;;;;;6.57;6.03;;;;;;;0.62;78.54;101507.31;5020451;28;20044;-73
2021/01/10 01:20:34;;;;;;;6.65;5.88;;;;;;;0.60;78.91;101509.31;5017110;28;20021;-72
2021/01/10 01:23:03;;;;;;;5.60;4.82;;;;;;;0.57;79.64;101518.59;5003687;28;20037;-72
2021/01/10 01:25:32;;;;;;;7.30;6.57;;;;;;;0.52;78.81;101505.63;5015532;28;20029;-73
2021/01/10 01:27:57;;;;;;;7.20;3.45;;;;;;;0.48;79.05;101504.34;5021694;28;20116;-74
2021/01/10 01:30:22;;;;;;;3.65;3.45;;;;;;;0.49;78.95;101500.59;5022505;28;20079;-73
2021/01/10 01:32:57;;;;;;;2.75;2.65;;;;;;;0.51;79.42;101503.13;5011713;28;20025;-71
2021/01/10 01:35:25;;;;;;;2.80;2.70;;;;;;;0.50;80.08;101502.28;5023428;28;20052;-74
2021/01/10 01:37:51;;;;;;;2.70;2.50;;;;;;;0.57;79.69;101506.97;5039335;28;20043;-73
2021/01/10 01:40:18;;;;;;;2.40;2.20;;;;;;;0.59;79.32;101504.97;5029392;28;20124;-73
2021/01/10 01:42:47;;;;;;;1.50;1.40;;;;;;;0.65;79.41;101510.47;5028703;28;20169;-73
2021/01/10 01:45:12;;;;;;;1.20;1.17;;;;;;;0.73;79.18;101515.00;5027443;28;20124;-71
2021/01/10 01:47:39;;;;;;;5.07;4.47;;;;;;;0.76;78.37;101516.50;5041628;28;20112;-70
2021/01/10 01:50:06;;;;;;;3.97;3.67;;;;;;;0.73;79.01;101512.31;5040663;28;20079;-70
2021/01/10 01:52:32;;;;;;;2.15;2.05;;;;;;;0.68;79.89;101514.69;5043203;28;20491;-71
2021/01/10 01:54:58;;;;;;;2.72;2.63;;;;;;;0.74;79.75;101516.66;5044492;28;20028;-71
2021/01/10 01:57:23;;;;;;;6.32;3.17;;;;;;;0.78;78.63;101515.31;5032905;28;20071;-70
2021/01/10 01:59:49;;;;;;;4.55;4.15;;;;;;;0.78;78.92;101509.94;5021723;28;20033;-71
2021/01/10 02:02:14;;;;;;;2.75;2.55;;;;;;;0.78;78.67;101515.31;5038022;28;20048;-72
2021/01/10 02:04:52;;;;;;;4.15;3.67;;;;;;;0.83;78.35;101512.09;5022323;28;20108;-70
2021/01/10 02:07:25;;;;;;;7.22;6.60;;;;;;;0.82;78.60;101508.56;5039476;28;20033;-72
2021/01/10 02:09:59;;;;;;;6.22;5.63;;;;;;;0.75;78.97;101504.91;5031729;28;20045;-71
2021/01/10 02:12:29;;;;;;;3.45;3.08;;;;;;;0.74;79.19;101502.38;5033337;28;20470;-71
2021/01/10 02:15:00;;;;;;;6.93;4.80;;;;;;;0.78;79.50;101511.78;5033994;28;20036;-71
2021/01/10 02:17:27;;;;;;;3.50;3.30;;;;;;;0.78;78.76;101509.94;5039942;28;20037;-71
2021/01/10 02:20:04;;;;;;;4.18;3.88;;;;;;;0.77;79.50;101521.72;5041794;28;20055;-70
2021/01/10 02:22:35;;;;;;;5.85;5.32;;;;;;;0.78;78.77;101517.19;5047482;28;20025;-71
2021/01/10 02:25:00;;;;;;;6.32;4.25;;;;;;;0.73;78.66;101523.09;5022065;28;20037;-72
2021/01/10 02:27:26;;;;;;;5.50;4.93;;;;;;;0.72;78.41;101524.09;5033981;28;20029;-71
2021/01/10 02:29:52;;;;;;;6.63;6.00;;;;;;;0.69;78.14;101502.91;5028194;28;20037;-72
2021/01/10 02:32:20;;;;;;;3.92;3.20;;;;;;;0.68;78.04;101507.44;5049580;28;20089;-72
2021/01/10 02:34:47;;;;;;;4.22;3.83;;;;;;;0.71;78.57;101514.34;5039385;28;20040;-72
2021/01/10 02:37:36;;;;;;;2.17;2.08;;;;;;;0.79;79.17;101516.16;5018114;28;20036;-72
2021/01/10 02:40:12;;;;;;;2.58;2.38;;;;;;;0.84;79.20;101509.22;5007922;28;20040;-73
2021/01/10 02:43:01;;;;;;;7.47;5.63;;;;;;;0.86;78.49;101504.53;5029198;28;20025;-72
2021/01/10 02:45:27;;;;;;;11.57;8.32;;;;;;;0.84;78.46;101498.44;5045903;28;20032;-73
2021/01/10 02:47:53;;;;;;;11.10;8.25;;;;;;;0.72;78.15;101489.09;5037951;28;20041;-73
2021/01/10 02:50:18;;;;;;;13.38;7.63;;;;;;;0.67;77.67;101502.22;5017860;28;20029;-72
2021/01/10 02:52:46;;;;;;;10.35;7.75;;;;;;;0.58;78.11;101497.91;5014592;28;20030;-72
2021/01/10 02:55:12;;;;;;;11.38;7.53;;;;;;;0.50;78.83;101504.97;5044643;28;20491;-71
2021/01/10 02:57:38;;;;;;;11.00;7.72;;;;;;;0.45;79.00;101498.44;5047120;28;20124;-71
2021/01/10 03:00:07;;;;;;;10.82;6.78;;;;;;;0.40;79.15;101501.66;5042869;28;20034;-73
2021/01/10 03:02:36;;;;;;;4.38;3.25;;;;;;;0.45;80.13;101510.06;5046707;28;20033;-70
2021/01/10 03:05:06;;;;;;;11.73;6.15;;;;;;;0.54;79.48;101502.81;5023131;28;20037;-73
2021/01/10 03:07:34;;;;;;;6.00;4.85;;;;;;;0.56;79.14;101499.94;5033521;28;20032;-72
2021/01/10 03:10:01;;;;;;;5.45;4.55;;;;;;;0.58;78.93;101497.91;5029886;28;20442;-75
2021/01/10 03:12:27;;;;;;;6.78;5.68;;;;;;;0.60;78.75;101485.94;5002605;28;20040;-73
2021/01/10 03:14:54;;;;;;;6.35;4.55;;;;;;;0.59;79.62;101480.75;5010287;28;20053;-72
2021/01/10 03:17:40;;;;;;;8.27;6.13;;;;;;;0.70;78.99;101485.72;5029631;28;20028;-72
2021/01/10 03:20:08;;;;;;;13.95;7.65;;;;;;;0.71;78.27;101487.41;5016384;28;20052;-73
2021/01/10 03:22:34;;;;;;;14.02;8.07;;;;;;;0.64;78.92;101486.44;5040721;28;20037;-75
2021/01/10 03:25:00;;;;;;;7.05;5.47;;;;;;;0.59;78.51;101488.81;5043736;28;20035;-75
2021/01/10 03:27:25;;;;;;;6.95;5.60;;;;;;;0.61;79.17;101486.78;5044590;28;20044;-76
2021/01/10 03:29:51;;;;;;;7.28;3.67;;;;;;;0.62;79.70;101494.69;5017917;28;20032;-76
2021/01/10 03:32:16;;;;;;;7.82;5.82;;;;;;;0.66;79.88;101487.94;5023495;28;20406;-75
2021/01/10 03:34:42;;;;;;;3.10;2.90;;;;;;;0.68;79.01;101493.16;5023101;28;20043;-72
2021/01/10 03:37:08;;;;;;;5.68;3.97;;;;;;;0.75;79.18;101491.44;5052815;28;20100;-74
2021/01/10 03:39:34;;;;;;;8.77;5.30;;;;;;;0.78;78.72;101474.09;5009467;28;20428;-73
2021/01/10 03:41:59;;;;;;;17.42;8.98;;;;;;;0.77;78.36;101475.09;5033222;28;20048;-73
2021/01/10 03:44:25;;;;;;;16.95;9.77;;;;;;;0.71;78.45;101475.81;5028656;28;20035;-74
2021/01/10 03:46:52;;;;;;;17.85;9.68;;;;;;;0.65;78.07;101480.03;5034102;28;20052;-75
2021/01/10 03:49:18;;;;;;;5.65;5.10;;;;;;;0.53;79.39;101468.81;5047508;28;20549;-74
2021/01/10 03:51:46;;;;;;;8.50;6.57;;;;;;;0.52;78.99;101462.56;5040693;28;20029;-73
2021/01/10 03:54:12;;;;;;;10.50;7.28;;;;;;;0.51;79.02;101460.06;5046182;28;20135;-73
2021/01/10 03:56:37;;;;;;;8.15;5.13;;;;;;;0.56;78.67;101459.56;5041538;28;20033;-75
2021/01/10 03:59:03;;;;;;;11.85;7.22;;;;;;;0.54;79.46;101465.13;5028754;28;20034;-74
2021/01/10 04:01:28;;;;;;;16.52;8.25;;;;;;;0.51;78.98;101466.31;5020383;28;20013;-73
2021/01/10 04:03:53;;;;;;;5.97;5.00;;;;;;;0.48;79.45;101465.78;5034308;28;20352;-74
2021/01/10 04:06:19;;;;;;;6.97;5.35;;;;;;;0.50;79.35;101463.78;5034534;28;20067;-74
2021/01/10 04:08:47;;;;;;;16.27;6.82;;;;;;;0.47;78.90;101459.56;5047933;28;20056;-75
2021/01/10 04:11:14;;;;;;;10.27;5.63;;;;;;;0.49;79.08;101468.31;5025842;28;20031;-72
2021/01/10 04:13:40;;;;;;;14.07;6.93;;;;;;;0.51;79.30;101465.44;5033008;28;20021;-74
2021/01/10 04:16:05;;;;;;;10.48;7.45;;;;;;;0.48;79.83;101466.66;5045633;28;20029;-73
2021/01/10 04:18:31;;;;;;;7.65;6.20;;;;;;;0.46;79.54;101462.44;5024155;28;20025;-74
2021/01/10 04:20:58;;;;;;;17.08;9.05;;;;;;;0.44;79.25;101459.06;5047632;28;20123;-73
2021/01/10 04:23:23;;;;;;;14.93;8.80;;;;;;;0.42;79.45;101467.31;5040122;28;20035;-74
2021/01/10 04:25:49;;;;;;;17.35;8.20;;;;;;;0.33;79.40;101457.59;5028118;28;20029;-73
2021/01/10 04:28:15;;;;;;;17.15;7.95;;;;;;;0.30;80.06;101457.94;5052039;28;20025;-73
2021/01/10 04:30:40;;;;;;;20.10;9.57;;;;;;;0.26;80.21;101452.06;5048234;28;20033;-72
2021/01/10 04:33:05;;;;;;;18.92;8.82;;;;;;;0.20;80.26;101451.94;5031670;28;20040;-71
2021/01/10 04:35:31;;;;;;;13.75;8.85;;;;;;;0.17;79.67;101451.25;5033658;28;20033;-73
2021/01/10 04:37:56;;;;;;;11.23;6.32;;;;;;;0.13;80.59;101436.50;5038268;28;20494;-72
2021/01/10 04:40:22;;;;;;;11.07;5.55;;;;;;;0.20;80.44;101451.94;5049962;28;20489;-73
2021/01/10 04:42:48;;;;;;;13.48;6.97;;;;;;;0.26;79.76;101451.22;5025430;28;20456;-73
2021/01/10 04:45:14;;;;;;;19.23;8.70;;;;;;;0.28;80.59;101452.75;5022997;28;20504;-73
2021/01/10 04:47:41;;;;;;;11.95;7.03;;;;;;;0.29;80.84;101445.50;5038190;28;20539;-72
2021/01/10 04:50:07;;;;;;;21.00;8.57;;;;;;;0.28;80.07;101457.31;5012201;28;20537;-70
2021/01/10 04:52:36;;;;;;;16.55;7.05;;;;;;;0.23;80.08;101452.41;5018801;28;20017;-73
2021/01/10 04:55:04;;;;;;;8.52;6.35;;;;;;;0.29;80.12;101448.19;5055213;28;20028;-71
2021/01/10 04:57:34;;;;;;;10.82;6.22;;;;;;;0.36;80.85;101442.97;5034949;28;20029;-74
2021/01/10 05:00:04;;;;;;;9.13;5.80;;;;;;;0.39;80.81;101440.75;5053557;28;20033;-73
2021/01/10 05:02:31;;;;;;;24.15;9.90;;;;;;;0.45;80.54;101445.47;5027143;28;20028;-74
2021/01/10 05:04:57;;;;;;;12.85;8.10;;;;;;;0.47;80.22;101443.44;5044773;28;20024;-74
2021/01/10 05:07:25;;;;;;;19.88;9.00;;;;;;;0.46;80.02;101439.06;5047841;28;20033;-75
2021/01/10 05:09:51;;;;;;;7.70;4.75;;;;;;;0.45;80.37;101440.09;5053409;28;20041;-74
2021/01/10 05:12:16;;;;;;;11.65;5.82;;;;;;;0.54;80.57;101443.59;5053082;28;20051;-73
2021/01/10 05:14:41;;;;;;;15.32;8.45;;;;;;;0.59;80.94;101445.75;5027375;28;20033;-73
2021/01/10 05:17:22;;;;;;;16.77;8.02;;;;;;;0.66;79.77;101446.72;5052042;28;20041;-73
2021/01/10 05:19:51;;;;;;;23.52;8.95;;;;;;;0.72;80.37;101440.63;5019003;28;20038;-73
2021/01/10 05:22:20;;;;;;;23.40;10.32;;;;;;;0.71;79.85;101441.63;5028001;28;20542;-73
2021/01/10 05:24:49;;;;;;;28.58;10.82;;;;;;;0.70;79.28;101439.94;5027905;28;20100;-73
2021/01/10 05:27:15;;;;;;;15.65;9.48;;;;;;;0.65;80.28;101437.78;5024985;28;20590;-74
2021/01/10 05:29:44;;;;;;;13.82;7.70;;;;;;;0.65;79.84;101447.72;5049834;28;20111;-73
2021/01/10 05:32:10;;;;;;;10.80;6.82;;;;;;;0.69;80.43;101451.75;5015837;28;20036;-74
2021/01/10 05:34:36;;;;;;;13.15;5.90;;;;;;;0.72;80.61;101446.00;5027617;28;20430;-72
2021/01/10 05:37:14;;;;;;;10.43;5.40;;;;;;;0.82;80.12;101440.41;5007369;28;20025;-72
2021/01/10 05:39:44;;;;;;;23.05;9.75;;;;;;;0.86;80.62;101442.56;5044192;28;20025;-74
2021/01/10 05:42:10;;;;;;;17.90;8.15;;;;;;;0.87;80.08;101443.41;5022484;28;20021;-75
2021/01/10 05:44:39;;;;;;;20.30;9.18;;;;;;;0.92;80.55;101450.94;5027442;28;20021;-73
2021/01/10 05:47:13;;;;;;;29.45;11.52;;;;;;;0.93;79.40;101450.78;5049864;28;20052;-74
2021/01/10 05:49:58;;;;;;;27.58;11.68;;;;;;;0.96;80.39;101447.72;5026379;28;20017;-73
2021/01/10 05:52:25;;;;;;;32.03;11.00;;;;;;;0.94;79.75;101446.25;5052431;28;20128;-74
2021/01/10 05:54:55;;;;;;;25.00;10.57;;;;;;;0.95;79.90;101447.91;5083711;28;20025;-74
2021/01/10 05:57:30;;;;;;;21.05;8.45;;;;;;;0.95;79.83;101450.59;5052559;28;20026;-74
2021/01/10 05:59:56;;;;;;;8.30;5.38;;;;;;;0.99;79.92;101443.84;5057485;28;20021;-74
2021/01/10 06:02:31;;;;;;;19.30;8.63;;;;;;;1.08;79.95;101442.78;5066239;28;20033;-73
2021/01/10 06:05:19;;;;;;;11.05;6.72;;;;;;;1.09;79.46;101441.75;5043778;28;20379;-73
2021/01/10 06:07:48;;;;;;;11.25;6.32;;;;;;;1.11;79.63;101428.97;5038036;28;20100;-75
2021/01/10 06:10:27;;;;;;;18.45;9.82;;;;;;;1.18;78.69;101429.94;5045773;28;20477;-72
2021/01/10 06:13:03;;;;;;;10.75;7.28;;;;;;;1.22;79.73;101436.59;5025623;28;20136;-73
2021/01/10 06:15:31;;;;;;;32.03;13.20;;;;;;;1.26;79.08;101436.28;5026851;28;20367;-73
2021/01/10 06:18:00;;;;;;;38.10;13.82;;;;;;;1.21;78.59;101434.94;5046168;28;20033;-73
2021/01/10 06:20:27;;;;;;;27.38;12.15;;;;;;;1.16;79.42;101428.41;5042172;28;20033;-73
2021/01/10 06:22:57;;;;;;;30.15;12.35;;;;;;;1.15;78.60;101434.81;5039598;28;20344;-74
2021/01/10 06:25:27;;;;;;;26.63;11.13;;;;;;;1.15;78.87;101435.66;5018569;28;20162;-73
2021/01/10 06:28:03;;;;;;;35.85;13.82;;;;;;;1.14;79.33;101435.81;5045739;28;20116;-70
2021/01/10 06:30:32;;;;;;;;;;;;;;;1.08;78.22;101434.72;5027700;28;20392;-71
2021/01/10 06:33:16;;;;;;;20.38;9.50;;;;;;;1.07;78.31;101427.63;5042890;28;19909;-72
2021/01/10 06:35:43;;;;;;;27.65;10.88;;;;;;;1.04;78.62;101425.31;5034983;28;20067;-72
2021/01/10 06:38:10;;;;;;;30.13;12.95;;;;;;;1.05;78.62;101418.88;5051827;28;20029;-72
2021/01/10 06:40:38;;;;;;;47.42;15.05;;;;;;;1.05;78.07;101426.97;5004093;28;20052;-71
2021/01/10 06:43:06;;;;;;;33.33;14.38;;;;;;;1.03;78.21;101426.31;5039821;28;20033;-71
2021/01/10 06:45:40;;;;;;;35.88;14.32;;;;;;;0.99;79.34;101422.28;5031148;28;20031;-71
2021/01/10 06:48:07;;;;;;;31.02;13.35;;;;;;;0.92;79.06;101424.00;5034401;28;20483;-71
2021/01/10 06:50:33;;;;;;;32.10;12.50;;;;;;;0.91;79.32;101427.75;5052983;28;20108;-71
2021/01/10 06:53:07;;;;;;;25.65;11.05;;;;;;;0.89;78.68;101419.00;5032758;28;20029;-71
2021/01/10 06:55:33;;;;;;;27.75;11.93;;;;;;;0.90;79.80;101428.75;5026587;28;20018;-72
2021/01/10 06:58:06;;;;;;;18.50;8.43;;;;;;;0.91;78.98;101433.13;5036208;28;20056;-71
2021/01/10 07:00:57;;;;;;;8.43;5.85;;;;;;;0.97;80.15;101427.03;5031989;28;20554;-73
2021/01/10 07:03:24;;;;;;;27.40;11.95;;;;;;;1.03;79.53;101420.94;5049260;28;20021;-72
2021/01/10 07:06:05;;;;;;;24.48;11.80;;;;;;;1.04;78.71;101423.44;5024869;28;20029;-73
2021/01/10 07:08:30;;;;;;;28.52;12.32;;;;;;;1.02;78.76;101424.63;5041423;28;20052;-72
2021/01/10 07:10:56;;;;;;;28.92;13.05;;;;;;;1.02;80.03;101424.63;5030722;28;20025;-72
2021/01/10 07:13:27;;;;;;;40.42;14.80;;;;;;;0.98;79.66;101420.59;5041831;28;20386;-72
2021/01/10 07:16:19;;;;;;;27.95;12.93;;;;;;;0.95;79.29;101427.22;5030849;28;20037;-72
2021/01/10 07:18:55;;;;;;;27.88;13.75;;;;;;;0.92;79.49;101416.78;5045900;28;20090;-73
2021/01/10 07:21:45;;;;;;;27.52;12.80;;;;;;;0.88;79.50;101420.84;5038415;28;20328;-72
2021/01/10 07:24:13;;;;;;;35.83;14.38;;;;;;;0.89;79.10;101427.06;5045588;28;20074;-72
2021/01/10 07:26:50;;;;;;;27.45;12.90;;;;;;;0.85;79.12;101426.59;5027427;28;20029;-73
2021/01/10 07:29:35;;;;;;;19.55;8.98;;;;;;;0.86;80.38;101425.56;5026366;28;20375;-71
2021/01/10 07:32:07;;;;;;;20.90;9.07;;;;;;;0.89;79.89;101435.16;5039776;28;20487;-73
2021/01/10 07:34:35;;;;;;;24.40;11.20;;;;;;;0.91;79.94;101427.75;5055932;28;20436;-76
2021/01/10 07:37:03;;;;;;;15.73;9.18;;;;;;;0.94;79.76;101422.84;5033000;28;20044;-76
2021/01/10 07:39:30;;;;;;;28.73;13.70;;;;;;;1.02;79.02;101430.00;5048880;28;20029;-76
2021/01/10 07:42:11;;;;;;;45.97;18.42;;;;;;;1.01;79.27;101425.66;5029295;28;20025;-76
2021/01/10 07:44:59;;;;;;;30.50;15.07;;;;;;;0.96;80.23;101428.03;5047908;28;20343;-73
2021/01/10 07:47:33;;;;;;;25.98;12.98;;;;;;;0.91;79.16;101425.06;5048228;28;20496;-74
2021/01/10 07:50:00;;;;;;;34.42;14.15;;;;;;;0.87;80.08;101416.47;5046477;28;20112;-73
2021/01/10 07:52:41;;;;;;;19.55;11.48;;;;;;;0.87;79.30;101424.56;5024322;28;23000;-73
2021/01/10 07:55:18;;;;;;;18.23;8.50;;;;;;;0.88;79.86;101423.56;5040065;28;20124;-74
2021/01/10 07:57:50;;;;;;;20.70;10.35;;;;;;;0.89;80.61;101419.00;5021106;28;20111;-73
2021/01/10 08:00:15;;;;;;;29.83;12.73;;;;;;;0.91;79.68;101422.38;5033231;28;20071;-74
2021/01/10 08:02:48;;;;;;;15.25;9.95;;;;;;;0.90;80.06;101420.69;5040340;28;20013;-73
2021/01/10 08:05:17;;;;;;;15.30;9.20;;;;;;;0.90;80.33;101418.81;5032780;28;20053;-73
2021/01/10 08:07:57;;;;;;;30.80;13.02;;;;;;;0.93;79.89;101420.31;5027302;28;20399;-76
2021/01/10 08:10:25;;;;;;;33.28;13.18;;;;;;;0.89;79.70;101427.06;5048137;28;20040;-73
2021/01/10 08:12:51;;;;;;;18.02;10.20;;;;;;;0.89;80.37;101425.19;5052357;28;20385;-77
2021/01/10 08:15:17;;;;;;;16.65;9.25;;;;;;;0.90;79.94;101428.75;5013355;28;20044;-73
2021/01/10 08:17:43;;;;;;;34.60;13.98;;;;;;;0.94;79.74;101422.00;5050802;28;20100;-75
2021/01/10 08:20:09;;;;;;;19.20;10.30;;;;;;;0.95;80.61;101423.66;5047148;28;20544;-75
2021/01/10 08:22:37;;;;;;;41.03;13.50;;;;;;;0.97;79.83;101421.63;5032537;28;20375;-76
2021/01/10 08:25:18;;;;;;;35.70;13.43;;;;;;;0.98;80.14;101426.00;5044022;28;20103;-75
2021/01/10 08:27:44;;;;;;;33.08;13.82;;;;;;;0.99;80.61;101422.28;5045801;28;20029;-73
2021/01/10 08:30:12;;;;;;;24.35;10.77;;;;;;;1.00;80.27;101415.91;5043342;28;20486;-74
2021/01/10 08:32:38;;;;;;;15.30;8.73;;;;;;;1.02;79.94;101413.84;5034721;28;20031;-72
2021/01/10 08:35:05;;;;;;;13.50;7.20;;;;;;;1.07;79.75;101416.00;5031751;28;20112;-74
2021/01/10 08:37:30;;;;;;;26.45;10.60;;;;;;;1.17;79.81;101428.25;5059008;28;20055;-73
2021/01/10 08:40:08;;;;;;;26.70;13.57;;;;;;;1.25;79.51;101432.72;5046562;28;20037;-72
2021/01/10 08:42:34;;;;;;;28.38;13.45;;;;;;;1.30;80.19;101437.56;5036679;28;20025;-71
2021/01/10 08:45:21;;;;;;;18.40;12.07;;;;;;;1.35;79.66;101435.19;5049056;28;20090;-75
2021/01/10 08:47:47;;;;;;;28.40;12.48;;;;;;;1.36;79.27;101434.19;5040209;28;20025;-77
2021/01/10 08:50:15;;;;;;;35.17;16.35;;;;;;;1.36;79.07;101428.78;5027269;28;20056;-73
2021/01/10 08:52:57;;;;;;;32.30;14.82;;;;;;;1.43;79.38;101437.81;5029329;28;20024;-75
2021/01/10 08:55:42;;;;;;;20.50;12.23;;;;;;;1.45;78.77;101443.88;5023352;28;20029;-70
2021/01/10 08:58:09;;;;;;;27.25;12.52;;;;;;;1.48;78.95;101440.81;5043261;28;20016;-75
2021/01/10 09:00:38;;;;;;;23.58;12.05;;;;;;;1.59;79.20;101449.47;5023633;28;20021;-70
2021/01/10 09:03:17;;;;;;;24.33;13.88;;;;;;;1.62;79.10;101443.72;5039345;28;20036;-70
2021/01/10 09:05:44;;;;;;;15.68;10.10;;;;;;;1.60;78.46;101451.16;5045395;28;20099;-69
2021/01/10 09:08:15;;;;;;;16.20;8.82;;;;;;;1.65;79.21;101462.22;5041916;28;20036;-71
2021/01/10 09:10:49;;;;;;;10.25;5.65;;;;;;;1.76;79.81;101459.09;5032121;28;20025;-72
2021/01/10 09:13:32;;;;;;;7.50;6.72;;;;;;;1.89;78.43;101462.00;5045846;28;20032;-75
2021/01/10 09:16:00;;;;;;;22.92;10.70;;;;;;;1.94;79.20;101463.31;5019734;28;20064;-78
2021/01/10 09:18:28;;;;;;;19.67;10.70;;;;;;;1.94;78.34;101463.31;5020638;28;20112;-77
2021/01/10 09:21:14;;;;;;;16.50;9.18;;;;;;;1.98;78.62;101461.94;5022277;28;20028;-77
2021/01/10 09:23:53;;;;;;;16.33;9.80;;;;;;;2.00;78.91;101457.19;5026691;28;20123;-78
2021/01/10 09:26:36;;;;;;;12.50;8.82;;;;;;;2.06;79.18;101460.00;5034175;28;20033;-78
2021/01/10 09:29:24;;;;;;;11.88;8.57;;;;;;;2.12;78.59;101463.81;5028096;28;20033;-78
2021/01/10 09:31:56;;;;;;;22.15;12.05;;;;;;;2.18;78.44;101460.38;5038981;28;20056;-78
2021/01/10 09:34:35;;;;;;;22.00;11.15;;;;;;;2.17;78.33;101460.56;5047298;28;20437;-79
2021/01/10 09:37:18;;;;;;;14.40;7.97;;;;;;;2.27;78.06;101470.06;5029285;28;20128;-78
2021/01/10 09:39:47;;;;;;;20.20;11.43;;;;;;;2.26;77.60;101457.59;5039743;28;20045;-79
2021/01/10 09:42:13;;;;;;;23.60;11.82;;;;;;;2.16;77.58;101443.56;5033392;28;20079;-77
2021/01/10 09:44:39;;;;;;;19.75;10.85;;;;;;;2.30;77.17;101466.16;5036750;28;20033;-77
2021/01/10 09:47:05;;;;;;;22.63;12.55;;;;;;;2.29;77.46;101452.84;5018120;28;20062;-78
2021/01/10 09:49:31;;;;;;;15.48;9.32;;;;;;;2.29;77.02;101447.44;5018551;28;20032;-78
2021/01/10 09:52:14;;;;;;;;;;;;;;;;;;;;;
2021/01/10 09:54:40;;;;;;;28.88;15.95;;;;;;;2.25;76.99;101436.19;5034173;28;20407;-77
2021/01/10 09:57:08;;;;;;;32.65;15.30;;;;;;;2.33;76.63;101456.84;5011908;28;20119;-78
2021/01/10 09:59:56;;;;;;;25.42;15.10;;;;;;;2.26;77.18;101460.31;5026651;28;20037;-78
2021/01/10 10:02:37;;;;;;;38.40;16.67;;;;;;;2.04;77.75;101428.81;5034947;28;20025;-80
2021/01/10 10:05:16;;;;;;;30.63;16.77;;;;;;;2.11;78.04;101455.91;5052292;28;20052;-79
2021/01/10 10:07:45;;;;;;;25.98;13.48;;;;;;;2.03;77.36;101462.22;5029937;28;20075;-78
2021/01/10 10:10:20;;;;;;;18.77;12.85;;;;;;;2.04;77.94;101466.59;5049978;28;20053;-77
2021/01/10 10:13:08;;;;;;;15.32;10.60;;;;;;;2.02;77.65;101457.84;5052361;28;20036;-74
2021/01/10 10:15:38;;;;;;;7.53;5.82;;;;;;;2.12;78.22;101463.81;5041211;28;20025;-74
2021/01/10 10:18:07;;;;;;;11.23;7.38;;;;;;;2.26;78.88;101471.09;5029617;28;20025;-73
2021/01/10 10:20:36;;;;;;;24.45;11.93;;;;;;;2.33;77.83;101465.78;5055869;28;20029;-74
2021/01/10 10:23:15;;;;;;;29.42;13.88;;;;;;;2.42;78.35;101474.63;5042579;28;20029;-73
2021/01/10 10:25:42;;;;;;;20.73;12.68;;;;;;;2.41;78.06;101472.94;5046257;28;20139;-74
2021/01/10 10:28:08;;;;;;;14.40;10.40;;;;;;;2.45;77.52;101474.25;5034889;28;20082;-74
2021/01/10 10:30:34;;;;;;;27.50;12.68;;;;;;;2.47;78.11;101455.16;5046513;28;20037;-74
2021/01/10 10:33:03;;;;;;;15.48;10.30;;;;;;;2.58;77.44;101474.41;5058036;28;20021;-74
2021/01/10 10:35:29;;;;;;;23.05;12.20;;;;;;;2.60;77.77;101461.59;5065455;28;20070;-75
2021/01/10 10:38:00;;;;;;;14.63;10.05;;;;;;;2.66;76.86;101448.34;5045563;28;20020;-75
2021/01/10 10:40:26;;;;;;;17.63;10.98;;;;;;;2.94;77.98;101462.81;5033509;28;20032;-77
2021/01/10 10:42:57;;;;;;;13.68;9.40;;;;;;;3.12;76.77;101456.16;5059309;28;20105;-78
2021/01/10 10:45:22;;;;;;;9.18;8.10;;;;;;;3.41;76.67;101460.63;5020515;28;20021;-77
2021/01/10 10:47:48;;;;;;;21.02;12.38;;;;;;;3.59;75.98;101448.50;5042086;28;20116;-79
2021/01/10 10:50:17;;;;;;;17.85;11.32;;;;;;;3.79;75.81;101462.22;5028998;28;20021;-78
2021/01/10 10:52:55;;;;;;;22.35;12.23;;;;;;;3.82;74.19;101441.00;5032860;28;20532;-77
2021/01/10 10:55:32;;;;;;;;;;;;;;;;;;;;;
2021/01/10 10:58:15;;;;;;;22.63;13.02;;;;;;;3.67;73.19;101441.09;5043957;28;20358;-78
2021/01/10 11:00:44;;;;;;;26.42;14.18;;;;;;;3.51;73.61;101433.25;5031396;28;20025;-80
2021/01/10 11:03:15;;;;;;;20.88;12.80;;;;;;;3.60;74.50;101451.03;5032749;28;20533;-79
2021/01/10 11:05:41;;;;;;;19.27;11.07;;;;;;;3.67;74.48;101442.97;5052114;28;20097;-81
2021/01/10 11:08:09;;;;;;;17.08;11.02;;;;;;;3.75;74.89;101431.16;5030629;28;20096;-77
2021/01/10 11:10:34;;;;;;;6.90;6.30;;;;;;;3.96;74.93;101428.41;5041170;28;20029;-75
2021/01/10 11:13:00;;;;;;;19.48;11.27;;;;;;;4.24;73.76;101435.69;5042289;28;20031;-78
2021/01/10 11:15:27;;;;;;;20.17;11.48;;;;;;;4.39;74.18;101442.84;4995409;28;20028;-76
2021/01/10 11:17:53;;;;;;;13.18;7.47;;;;;;;4.54;73.61;101446.25;5040149;28;20442;-78
2021/01/10 11:20:28;;;;;;;26.42;12.43;;;;;;;4.90;72.89;101445.16;5019222;28;20073;-78
2021/01/10 11:22:54;;;;;;;25.00;13.57;;;;;;;4.91;72.37;101435.97;5023811;28;20059;-76
2021/01/10 11:25:22;;;;;;;23.27;11.13;;;;;;;5.06;72.46;101444.78;5009300;28;20029;-76
2021/01/10 11:27:47;;;;;;;22.27;11.52;;;;;;;5.19;71.05;101421.47;5005200;28;20040;-78
2021/01/10 11:30:13;;;;;;;17.98;11.45;;;;;;;5.24;70.74;101427.94;5030372;28;20029;-74
2021/01/10 11:32:39;;;;;;;22.73;12.55;;;;;;;5.38;70.23;101436.09;5029491;28;20388;-77
2021/01/10 11:35:04;;;;;;;17.17;11.52;;;;;;;5.36;70.19;101441.72;5045820;28;20734;-76
2021/01/10 11:37:33;;;;;;;27.27;14.02;;;;;;;5.35;69.71;101440.03;5026527;28;20063;-72
2021/01/10 13:02:10;;;;;;;20.80;11.00;;;;;;;7.68;68.25;101349.66;5271922;22;20074;-77
2021/01/10 13:04:54;;;;;;;;;;;;;;;;;;;;;